Time;durP1;ratioP1;P1;durP2;ratioP2;P2;SDS_P1;SDS_P2;PMS_P1;PMS_P2;Temp;Humidity;BMP_temperature;BMP_pressure;BME280_temperature;BME280_humidity;BME280_pressure;Samples;Min_cycle;Max_cycle;Signal;HPM_P1;HPM_P2
2022/10/01 00:02:17;;;;;;;;;;;6.20;99.90;;;;;;5029687;28;19933;-76
2022/10/01 00:04:50;;;;;;;;;;;6.20;99.90;;;;;;5052070;28;19925;-76
2022/10/01 00:07:21;;;;;;;;;;;6.20;99.90;;;;;;5040609;28;19974;-76
2022/10/01 00:09:48;;;;;;;;;;;6.20;99.90;;;;;;5024648;28;19975;-75
2022/10/01 00:12:19;;;;;;;;;;;6.20;99.90;;;;;;5034799;28;20625;-76
2022/10/01 00:14:46;;;;;;;;;;;6.10;99.90;;;;;;5021214;28;20940;-73
2022/10/01 00:17:13;;;;;;;;;;;6.10;99.90;;;;;;5043710;28;19978;-75
2022/10/01 00:19:44;;;;;;;;;;;6.00;99.90;;;;;;5014052;28;19929;-75
2022/10/01 00:22:17;;;;;;;;;;;6.00;99.90;;;;;;5043553;28;19929;-75
2022/10/01 00:24:49;;;;;;;;;;;5.90;99.90;;;;;;5051228;28;19925;-74
2022/10/01 00:27:20;;;;;;;;;;;6.00;99.90;;;;;;5036538;28;19933;-75
2022/10/01 00:29:51;;;;;;;;;;;6.00;99.90;;;;;;5002239;28;20302;-71
2022/10/01 00:32:23;;;;;;;;;;;6.00;99.90;;;;;;5013718;28;19925;-73
2022/10/01 00:34:55;;;;;;;;;;;6.00;99.90;;;;;;4995387;28;20015;-71
2022/10/01 00:37:26;;;;;;;;;;;5.90;99.90;;;;;;4979321;28;19925;-72
2022/10/01 00:39:58;;;;;;;;;;;5.90;99.90;;;;;;5019446;28;20375;-72
2022/10/01 00:42:29;;;;;;;;;;;5.90;99.90;;;;;;5013074;28;19925;-71
2022/10/01 00:45:01;;;;;;;;;;;5.80;99.90;;;;;;5012558;28;19925;-71
2022/10/01 00:47:42;;;;;;;;;;;5.80;99.90;;;;;;5012855;28;19929;-72
2022/10/01 00:50:32;;;;;;;;;;;5.80;99.90;;;;;;5009730;28;19980;-70
2022/10/01 00:53:01;;;;;;;;;;;5.70;99.90;;;;;;4980155;28;19976;-71
2022/10/01 00:55:38;;;;;;;;;;;5.70;99.90;;;;;;5015389;28;19929;-71
2022/10/01 00:58:12;;;;;;;;;;;5.80;99.90;;;;;;5029153;28;19984;-71
2022/10/01 01:00:44;;;;;;;;;;;5.80;99.90;;;;;;5030960;28;19933;-72
2022/10/01 01:03:15;;;;;;;;;;;5.80;99.90;;;;;;5015705;28;19932;-71
2022/10/01 01:05:49;;;;;;;;;;;5.80;99.90;;;;;;5005200;28;20730;-74
2022/10/01 01:08:20;;;;;;;;;;;5.70;99.90;;;;;;5014611;28;19929;-71
2022/10/01 01:11:02;;;;;;;;;;;5.70;99.90;;;;;;5012584;28;19981;-72
2022/10/01 01:14:10;;;;;;;;;;;5.80;99.90;;;;;;5013759;28;19925;-71
2022/10/01 01:16:47;;;;;;;;;;;5.80;99.90;;;;;;4951802;28;19976;-71
2022/10/01 01:19:42;;;;;;;;;;;5.80;99.90;;;;;;4995771;28;19979;-72
2022/10/01 01:22:14;;;;;;;;;;;5.80;99.90;;;;;;4976761;28;20015;-71
2022/10/01 01:25:03;;;;;;;;;;;5.90;99.90;;;;;;5011224;28;19925;-71
2022/10/01 01:27:39;;;;;;;;;;;5.90;99.90;;;;;;4981521;28;19937;-72
2022/10/01 01:30:12;;;;;;;;;;;5.90;99.90;;;;;;5024529;28;19979;-70
2022/10/01 01:32:49;;;;;;;;;;;6.00;99.90;;;;;;5011724;28;19980;-71
2022/10/01 01:35:36;;;;;;;;;;;6.00;99.90;;;;;;5001416;28;19925;-72
2022/10/01 01:38:10;;;;;;;;;;;6.00;99.90;;;;;;5012521;28;20272;-71
2022/10/01 01:40:43;;;;;;;;;;;6.00;99.90;;;;;;5024393;28;19925;-72
2022/10/01 01:43:12;;;;;;;;;;;6.00;99.90;;;;;;5014367;28;19925;-71
2022/10/01 01:45:45;;;;;;;;;;;6.10;99.90;;;;;;5010731;28;19925;-71
2022/10/01 01:48:16;;;;;;;;;;;6.40;99.90;;;;;;5000482;28;19969;-71
2022/10/01 01:50:56;;;;;;;;;;;6.60;99.90;;;;;;5008730;28;19980;-70
2022/10/01 01:53:29;;;;;;;;;;;6.80;99.90;;;;;;5011081;28;19976;-71
2022/10/01 01:56:01;;;;;;;;;;;6.80;99.90;;;;;;5005478;28;19930;-72
2022/10/01 01:58:33;;;;;;;;;;;6.90;99.90;;;;;;5012451;28;20277;-72
2022/10/01 02:01:05;;;;;;;;;;;6.90;99.90;;;;;;5010538;28;19968;-71
2022/10/01 02:03:36;;;;;;;;;;;7.00;99.90;;;;;;5018664;28;19932;-71
2022/10/01 02:06:28;;;;;;;;;;;7.10;99.90;;;;;;5015573;28;19929;-71
2022/10/01 02:09:02;;;;;;;;;;;7.10;99.90;;;;;;5012444;28;19959;-71
2022/10/01 02:11:37;;;;;;;;;;;7.20;99.90;;;;;;5010487;28;19972;-72
2022/10/01 02:14:21;;;;;;;;;;;7.20;99.90;;;;;;4998358;28;20004;-71
2022/10/01 02:17:02;;;;;;;;;;;7.30;99.90;;;;;;5015450;28;19927;-71
2022/10/01 02:19:39;;;;;;;;;;;7.30;99.90;;;;;;5018189;28;20003;-74
2022/10/01 02:22:12;;;;;;;;;;;7.30;99.90;;;;;;5025189;28;20441;-73
2022/10/01 02:24:49;;;;;;;;;;;7.30;99.90;;;;;;5014701;28;19926;-71
2022/10/01 02:27:40;;;;;;;;;;;7.20;99.90;;;;;;4997702;28;19937;-71
2022/10/01 02:30:14;;;;;;;;;;;7.30;99.90;;;;;;5031579;28;19952;-71
2022/10/01 02:32:42;;;;;;;;;;;7.50;99.90;;;;;;5015599;28;19992;-71
2022/10/01 02:35:15;;;;;;;;;;;7.50;99.90;;;;;;5003056;28;19926;-71
2022/10/01 02:37:49;;;;;;;;;;;7.60;99.90;;;;;;4997510;28;19926;-72
2022/10/01 02:40:25;;;;;;;;;;;7.60;99.90;;;;;;5013989;28;20354;-71
2022/10/01 02:42:54;;;;;;;;;;;7.60;99.90;;;;;;5014919;28;19925;-73
2022/10/01 02:45:26;;;;;;;;;;;7.60;99.90;;;;;;5015220;28;19932;-72
2022/10/01 02:48:00;;;;;;;;;;;7.50;99.90;;;;;;5015706;28;20629;-71
2022/10/01 02:50:41;;;;;;;;;;;7.50;99.90;;;;;;5016481;28;19972;-71
2022/10/01 02:53:18;;;;;;;;;;;7.50;99.90;;;;;;5011348;28;19929;-71
2022/10/01 02:55:50;;;;;;;;;;;7.50;99.90;;;;;;5013906;28;19953;-71
2022/10/01 02:58:17;;;;;;;;;;;7.50;99.90;;;;;;4997630;28;19979;-70
2022/10/01 03:00:49;;;;;;;;;;;7.50;99.90;;;;;;5014550;28;19983;-71
2022/10/01 03:03:15;;;;;;;;;;;7.50;99.90;;;;;;5034780;28;20383;-71
2022/10/01 03:05:47;;;;;;;;;;;7.60;99.90;;;;;;5015488;28;20356;-73
2022/10/01 03:08:19;;;;;;;;;;;7.60;99.90;;;;;;5008952;28;19957;-71
2022/10/01 03:10:50;;;;;;;;;;;7.60;99.90;;;;;;5013376;28;20011;-71
2022/10/01 03:13:18;;;;;;;;;;;7.60;99.90;;;;;;5005135;28;19925;-71
2022/10/01 03:15:50;;;;;;;;;;;7.70;99.90;;;;;;5016355;28;19976;-72
2022/10/01 03:18:21;;;;;;;;;;;7.80;99.90;;;;;;5010695;28;19972;-70
2022/10/01 03:20:53;;;;;;;;;;;7.80;99.90;;;;;;5034864;28;19971;-71
2022/10/01 03:23:24;;;;;;;;;;;7.80;99.90;;;;;;5030972;28;19925;-71
2022/10/01 03:25:51;;;;;;;;;;;7.90;99.90;;;;;;5013549;28;19933;-72
2022/10/01 03:28:22;;;;;;;;;;;7.90;99.90;;;;;;5017115;28;20308;-72
2022/10/01 03:31:03;;;;;;;;;;;7.90;99.90;;;;;;4996694;28;19929;-71
2022/10/01 03:33:29;;;;;;;;;;;8.00;99.90;;;;;;5004247;28;19930;-71
2022/10/01 03:36:01;;;;;;;;;;;8.00;99.90;;;;;;4998785;28;19992;-72
2022/10/01 03:38:33;;;;;;;;;;;8.10;99.90;;;;;;5029758;28;19936;-71
2022/10/01 03:41:04;;;;;;;;;;;8.00;99.90;;;;;;5002023;28;19961;-71
2022/10/01 03:43:36;;;;;;;;;;;8.10;99.90;;;;;;5012689;28;19926;-71
2022/10/01 03:46:02;;;;;;;;;;;8.10;99.90;;;;;;4996844;28;19925;-71
2022/10/01 03:48:34;;;;;;;;;;;8.10;99.90;;;;;;5016225;28;20461;-72
2022/10/01 03:51:00;;;;;;;;;;;8.10;99.90;;;;;;5014077;28;19925;-71
2022/10/01 03:53:32;;;;;;;;;;;8.10;99.90;;;;;;5014590;28;19925;-72
2022/10/01 03:56:04;;;;;;;;;;;8.10;99.90;;;;;;4994775;28;19926;-71
2022/10/01 03:58:35;;;;;;;;;;;8.10;99.90;;;;;;5008543;28;19932;-71
2022/10/01 04:01:07;;;;;;;;;;;8.10;99.90;;;;;;4993534;28;19964;-71
2022/10/01 04:03:39;;;;;;;;;;;8.00;99.90;;;;;;4994821;28;19926;-71
2022/10/01 04:06:10;;;;;;;;;;;8.00;99.90;;;;;;4993697;28;19985;-71
2022/10/01 04:08:42;;;;;;;;;;;8.10;99.90;;;;;;5002587;28;19949;-72
2022/10/01 04:11:13;;;;;;;;;;;8.00;99.90;;;;;;5027011;28;20390;-72
2022/10/01 04:13:45;;;;;;;;;;;8.00;99.90;;;;;;5014223;28;19957;-72
2022/10/01 04:16:16;;;;;;;;;;;8.00;99.90;;;;;;5013834;28;19925;-70
2022/10/01 04:18:48;;;;;;;;;;;8.00;99.90;;;;;;5014781;28;20003;-71
2022/10/01 04:21:20;;;;;;;;;;;8.10;99.90;;;;;;5005901;28;19969;-72
2022/10/01 04:23:47;;;;;;;;;;;8.00;99.90;;;;;;5014209;28;19925;-71
2022/10/01 04:26:18;;;;;;;;;;;8.00;99.90;;;;;;5001952;28;19926;-71
2022/10/01 04:28:50;;;;;;;;;;;8.00;99.90;;;;;;5005727;28;19969;-72
2022/10/01 04:31:25;;;;;;;;;;;8.00;99.90;;;;;;4998498;28;19925;-71
2022/10/01 04:33:53;;;;;;;;;;;8.00;99.90;;;;;;4994386;28;19933;-71
2022/10/01 04:36:24;;;;;;;;;;;8.10;99.90;;;;;;4993824;28;19926;-72
2022/10/01 04:38:56;;;;;;;;;;;8.10;99.90;;;;;;5015805;28;19955;-71
2022/10/01 04:41:29;;;;;;;;;;;8.10;99.90;;;;;;4992804;28;20281;-71
2022/10/01 04:44:00;;;;;;;;;;;8.20;99.90;;;;;;4979867;28;19933;-71
2022/10/01 04:46:32;;;;;;;;;;;8.10;99.90;;;;;;5006600;28;19933;-71
2022/10/01 04:49:04;;;;;;;;;;;8.10;99.90;;;;;;5018579;28;20445;-72
2022/10/01 04:51:35;;;;;;;;;;;8.10;99.90;;;;;;5033245;28;20527;-71
2022/10/01 04:54:07;;;;;;;;;;;8.20;99.90;;;;;;5022079;28;19926;-71
2022/10/01 04:56:38;;;;;;;;;;;8.20;99.90;;;;;;5013127;28;20454;-71
2022/10/01 04:59:10;;;;;;;;;;;8.20;99.90;;;;;;5018971;28;19949;-72
2022/10/01 05:01:41;;;;;;;;;;;8.30;99.90;;;;;;5012123;28;19930;-70
2022/10/01 05:04:13;;;;;;;;;;;8.30;99.90;;;;;;5010051;28;20391;-71
2022/10/01 05:06:44;;;;;;;;;;;8.30;99.90;;;;;;5015858;28;19929;-72
2022/10/01 05:09:16;;;;;;;;;;;8.30;99.90;;;;;;5026352;28;19980;-71
2022/10/01 05:11:50;;;;;;;;;;;8.30;99.90;;;;;;5013123;28;19925;-71
2022/10/01 05:14:22;;;;;;;;;;;8.40;99.90;;;;;;4995485;28;19964;-71
2022/10/01 05:16:49;;;;;;;;;;;8.30;99.90;;;;;;5012759;28;19968;-71
2022/10/01 05:19:16;;;;;;;;;;;8.30;99.90;;;;;;5024298;28;19971;-72
2022/10/01 05:21:47;;;;;;;;;;;8.30;99.90;;;;;;5032711;28;19987;-71
2022/10/01 05:24:19;;;;;;;;;;;8.30;99.90;;;;;;5014291;28;20300;-71
2022/10/01 05:26:45;;;;;;;;;;;8.30;99.90;;;;;;5006677;28;19949;-71
2022/10/01 05:29:17;;;;;;;;;;;8.30;99.90;;;;;;5010059;28;19957;-71
2022/10/01 05:31:49;;;;;;;;;;;8.30;99.90;;;;;;5008954;28;19932;-71
2022/10/01 05:34:20;;;;;;;;;;;8.30;99.90;;;;;;5011032;28;19925;-72
2022/10/01 05:36:53;;;;;;;;;;;8.40;99.90;;;;;;5017272;28;19992;-71
2022/10/01 05:39:25;;;;;;;;;;;8.40;99.90;;;;;;5016438;28;19929;-71
2022/10/01 05:41:56;;;;;;;;;;;8.40;99.90;;;;;;5010831;28;19932;-71
2022/10/01 05:44:28;;;;;;;;;;;8.40;99.90;;;;;;5005092;28;19926;-71
2022/10/01 05:46:55;;;;;;;;;;;8.40;99.90;;;;;;5016585;28;19949;-71
2022/10/01 05:49:26;;;;;;;;;;;8.50;99.90;;;;;;5012501;28;19981;-71
2022/10/01 05:51:59;;;;;;;;;;;8.50;99.90;;;;;;5011928;28;19964;-72
2022/10/01 05:54:31;;;;;;;;;;;8.50;99.90;;;;;;5012447;28;19972;-71
2022/10/01 05:57:03;;;;;;;;;;;8.50;99.90;;;;;;4992669;28;19949;-71
2022/10/01 05:59:30;;;;;;;;;;;8.50;99.90;;;;;;5011997;28;19926;-72
2022/10/01 06:01:56;;;;;;;;;;;8.50;99.90;;;;;;5011660;28;20036;-72
2022/10/01 06:04:28;;;;;;;;;;;8.50;99.90;;;;;;4994441;28;20391;-72
2022/10/01 06:06:59;;;;;;;;;;;8.60;99.90;;;;;;5011228;28;19926;-72
2022/10/01 06:09:31;;;;;;;;;;;8.60;99.90;;;;;;5016650;28;20457;-71
2022/10/01 06:12:04;;;;;;;;;;;8.60;99.90;;;;;;5015401;28;19926;-71
2022/10/01 06:14:35;;;;;;;;;;;8.60;99.90;;;;;;5011890;28;19960;-71
2022/10/01 06:17:07;;;;;;;;;;;8.70;99.90;;;;;;5002412;28;20499;-71
2022/10/01 06:19:38;;;;;;;;;;;8.70;99.90;;;;;;5000931;28;19987;-71
2022/10/01 06:22:10;;;;;;;;;;;8.70;99.90;;;;;;5011853;28;20039;-71
2022/10/01 06:24:41;;;;;;;;;;;8.70;99.90;;;;;;5012260;28;19926;-70
2022/10/01 06:27:13;;;;;;;;;;;8.80;99.90;;;;;;4994341;28;19930;-71
2022/10/01 06:29:39;;;;;;;;;;;8.90;99.90;;;;;;5002628;28;20352;-71
2022/10/01 06:32:16;;;;;;;;;;;8.90;99.90;;;;;;5012477;28;19925;-71
2022/10/01 06:34:48;;;;;;;;;;;8.90;99.90;;;;;;5010348;28;20303;-71
2022/10/01 06:37:19;;;;;;;;;;;8.90;99.90;;;;;;5021275;28;19971;-71
2022/10/01 06:39:51;;;;;;;;;;;8.90;99.90;;;;;;5010675;28;19991;-71
2022/10/01 06:42:23;;;;;;;;;;;9.00;99.90;;;;;;5014990;28;19929;-71
2022/10/01 06:44:54;;;;;;;;;;;9.00;99.90;;;;;;5031976;28;19975;-71
2022/10/01 06:47:26;;;;;;;;;;;9.00;99.90;;;;;;5002757;28;19925;-71
2022/10/01 06:49:58;;;;;;;;;;;9.10;99.90;;;;;;5023285;28;19932;-71
2022/10/01 06:52:48;;;;;;;;;;;9.10;99.90;;;;;;5017493;28;19925;-71
2022/10/01 06:55:18;;;;;;;;;;;9.10;99.90;;;;;;4997404;28;19926;-71
2022/10/01 06:57:54;;;;;;;;;;;9.10;99.90;;;;;;4998524;28;19925;-70
2022/10/01 07:00:26;;;;;;;;;;;9.20;99.90;;;;;;5014007;28;19925;-71
2022/10/01 07:02:59;;;;;;;;;;;9.20;99.90;;;;;;5005790;28;19926;-71
2022/10/01 07:05:26;;;;;;;;;;;9.20;99.90;;;;;;4995665;28;19935;-71
2022/10/01 07:07:57;;;;;;;;;;;9.30;99.90;;;;;;5005893;28;19969;-70
2022/10/01 07:10:31;;;;;;;;;;;9.30;99.90;;;;;;5018645;28;19973;-70
2022/10/01 07:13:16;;;;;;;;;;;9.30;99.90;;;;;;5029741;28;20018;-71
2022/10/01 07:15:43;;;;;;;;;;;9.40;99.90;;;;;;4997734;28;19925;-70
2022/10/01 07:18:15;;;;;;;;;;;9.40;99.90;;;;;;5001460;28;19929;-72
2022/10/01 07:20:47;;;;;;;;;;;9.40;99.90;;;;;;5016864;28;20008;-72
2022/10/01 07:23:14;;;;;;;;;;;9.40;99.90;;;;;;5010601;28;19929;-71
2022/10/01 07:25:46;;;;;;;;;;;9.40;99.90;;;;;;5006108;28;19930;-71
2022/10/01 07:28:19;;;;;;;;;;;9.50;99.90;;;;;;5028419;23;19979;-74
2022/10/01 07:30:57;;;;;;;;;;;9.50;99.90;;;;;;5021132;28;19983;-73
2022/10/01 07:33:28;;;;;;;;;;;9.50;99.90;;;;;;5019429;28;20042;-74
2022/10/01 07:36:01;;;;;;;;;;;9.60;99.90;;;;;;5002222;28;19926;-73
2022/10/01 07:38:32;;;;;;;;;;;9.50;99.90;;;;;;5027274;28;20000;-74
2022/10/01 07:41:04;;;;;;;;;;;9.60;99.90;;;;;;5017257;28;19964;-74
2022/10/01 07:43:38;;;;;;;;;;;9.60;99.90;;;;;;5003911;28;19980;-74
2022/10/01 07:46:05;;;;;;;;;;;9.60;99.90;;;;;;5022183;28;19925;-73
2022/10/01 07:48:37;;;;;;;;;;;9.70;99.90;;;;;;5029836;28;19925;-73
2022/10/01 07:51:09;;;;;;;;;;;9.70;99.90;;;;;;5010123;28;19976;-75
2022/10/01 07:53:40;;;;;;;;;;;9.70;99.90;;;;;;5011378;28;19925;-73
2022/10/01 07:56:12;;;;;;;;;;;9.70;99.90;;;;;;5014316;28;19980;-74
2022/10/01 07:58:43;;;;;;;;;;;9.70;99.90;;;;;;5025228;28;19926;-74
2022/10/01 08:01:16;;;;;;;;;;;9.80;99.90;;;;;;5012734;28;19952;-73
2022/10/01 08:03:48;;;;;;;;;;;9.80;99.90;;;;;;5033538;28;19933;-75
2022/10/01 08:06:20;;;;;;;;;;;9.90;99.90;;;;;;5012353;28;19955;-76
2022/10/01 08:08:52;;;;;;;;;;;9.90;99.90;;;;;;5006768;28;20391;-74
2022/10/01 08:11:24;;;;;;;;;;;9.90;99.90;;;;;;5015729;28;19975;-74
2022/10/01 08:13:50;;;;;;;;;;;9.90;99.90;;;;;;5032957;28;19925;-73
2022/10/01 08:16:22;;;;;;;;;;;10.00;99.90;;;;;;5046715;28;19929;-74
2022/10/01 08:18:54;;;;;;;;;;;10.10;99.90;;;;;;5023466;28;20679;-73
2022/10/01 08:21:29;;;;;;;;;;;10.10;99.90;;;;;;5032101;28;19925;-73
2022/10/01 08:24:01;;;;;;;;;;;10.10;99.90;;;;;;5033871;28;19979;-74
2022/10/01 08:26:33;;;;;;;;;;;10.10;99.90;;;;;;5033091;28;19933;-74
2022/10/01 08:29:05;;;;;;;;;;;10.20;99.90;;;;;;5012716;28;19933;-73
2022/10/01 08:31:36;;;;;;;;;;;10.20;99.90;;;;;;5002923;28;20339;-74
2022/10/01 08:34:08;;;;;;;;;;;10.20;99.90;;;;;;5042868;28;19932;-74
2022/10/01 08:36:35;;;;;;;;;;;10.20;99.90;;;;;;5050417;28;19931;-74
2022/10/01 08:39:07;;;;;;;;;;;10.20;99.90;;;;;;5032014;28;19960;-74
2022/10/01 08:41:33;;;;;;;;;;;10.30;99.90;;;;;;5025616;28;19929;-73
2022/10/01 08:44:01;;;;;;;;;;;10.30;99.90;;;;;;5015659;28;19953;-74
2022/10/01 08:46:34;;;;;;;;;;;10.30;99.90;;;;;;5016168;28;19924;-74
2022/10/01 08:49:06;;;;;;;;;;;10.30;99.90;;;;;;5010308;28;19971;-74
2022/10/01 08:51:44;;;;;;;;;;;10.30;99.90;;;;;;5025157;28;19964;-75
2022/10/01 08:54:27;;;;;;;;;;;10.30;99.90;;;;;;5032048;28;19925;-74
2022/10/01 08:57:01;;;;;;;;;;;10.30;99.90;;;;;;5031391;28;19925;-73
2022/10/01 08:59:42;;;;;;;;;;;10.30;99.90;;;;;;5009128;28;19933;-74
2022/10/01 09:02:16;;;;;;;;;;;10.30;99.90;;;;;;5012123;28;19980;-73
2022/10/01 09:04:51;;;;;;;;;;;10.30;99.90;;;;;;5030434;28;20039;-74
2022/10/01 09:07:44;;;;;;;;;;;10.40;99.90;;;;;;5036320;28;20383;-74
2022/10/01 09:10:26;;;;;;;;;;;10.30;99.90;;;;;;5001551;28;19925;-73
2022/10/01 09:13:06;;;;;;;;;;;10.40;99.90;;;;;;5027746;28;20395;-74
2022/10/01 09:15:40;;;;;;;;;;;10.40;99.90;;;;;;5031334;28;19955;-74
2022/10/01 09:18:17;;;;;;;;;;;10.40;99.90;;;;;;5030874;28;19929;-73
2022/10/01 09:20:46;;;;;;;;;;;10.40;99.90;;;;;;5027125;28;19971;-73
2022/10/01 09:23:18;;;;;;;;;;;10.40;99.90;;;;;;5014749;28;19982;-73
2022/10/01 09:25:50;;;;;;;;;;;10.40;99.90;;;;;;5021808;28;19933;-73
2022/10/01 09:28:33;;;;;;;;;;;10.30;99.90;;;;;;5025334;28;19977;-74
2022/10/01 09:31:05;;;;;;;;;;;10.30;99.90;;;;;;5012948;28;20030;-74
2022/10/01 09:33:39;;;;;;;;;;;10.20;99.90;;;;;;5018528;28;20284;-73
2022/10/01 09:36:21;;;;;;;;;;;10.20;99.90;;;;;;5027790;28;20397;-74
2022/10/01 09:39:12;;;;;;;;;;;10.20;99.90;;;;;;5026570;28;20026;-73
2022/10/01 09:41:39;;;;;;;;;;;10.10;99.90;;;;;;5024825;28;19933;-73
2022/10/01 09:44:14;;;;;;;;;;;10.10;99.90;;;;;;5014554;28;19925;-73
2022/10/01 09:46:45;;;;;;;;;;;10.00;99.90;;;;;;5034883;28;19979;-73
2022/10/01 09:49:38;;;;;;;;;;;10.00;99.90;;;;;;5007135;28;19925;-72
2022/10/01 09:52:09;;;;;;;;;;;10.00;99.90;;;;;;5020178;28;20379;-74
2022/10/01 09:54:47;;;;;;;;;;;9.90;99.90;;;;;;5005593;28;20287;-74
2022/10/01 09:57:23;;;;;;;;;;;9.90;99.90;;;;;;5032777;28;19925;-75
2022/10/01 09:59:53;;;;;;;;;;;10.00;99.90;;;;;;5016491;28;20005;-74
2022/10/01 10:02:26;;;;;;;;;;;9.90;99.90;;;;;;4982820;28;19980;-76
2022/10/01 10:04:59;;;;;;;;;;;9.90;99.90;;;;;;5024382;28;19956;-73
2022/10/01 10:07:33;;;;;;;;;;;9.90;99.90;;;;;;5022522;28;20003;-74
2022/10/01 10:10:19;;;;;;;;;;;9.90;99.90;;;;;;5013000;28;19929;-73
2022/10/01 10:12:54;;;;;;;;;;;9.90;99.90;;;;;;5033089;28;19987;-74
2022/10/01 10:15:21;;;;;;;;;;;10.00;99.90;;;;;;4972962;28;19926;-75
2022/10/01 10:17:54;;;;;;;;;;;9.90;99.90;;;;;;5015493;28;19996;-74
2022/10/01 10:20:49;;;;;;;;;;;9.90;99.90;;;;;;5017949;28;19979;-74
2022/10/01 10:23:20;;;;;;;;;;;9.90;99.90;;;;;;4990435;28;19925;-75
2022/10/01 10:25:55;;;;;;;;;;;9.90;99.90;;;;;;5049187;28;19955;-75
2022/10/01 10:28:44;;;;;;;;;;;10.00;99.90;;;;;;5006228;28;19929;-77
2022/10/01 10:31:43;;;;;;;;;;;9.90;99.90;;;;;;5020547;28;19924;-73
2022/10/01 10:34:17;;;;;;;;;;;9.90;99.90;;;;;;5004975;28;19979;-75
2022/10/01 10:36:54;;;;;;;;;;;9.90;99.90;;;;;;5008271;28;20392;-74
2022/10/01 10:39:30;;;;;;;;;;;9.90;99.90;;;;;;5027765;28;19951;-74
2022/10/01 10:42:03;;;;;;;;;;;10.00;99.90;;;;;;5033809;28;19933;-75
2022/10/01 10:44:38;;;;;;;;;;;10.00;99.90;;;;;;5035236;28;19970;-75
2022/10/01 10:47:10;;;;;;;;;;;9.90;99.90;;;;;;5019968;28;19926;-74
2022/10/01 10:49:53;;;;;;;;;;;9.90;99.90;;;;;;5024987;28;20383;-75
2022/10/01 10:52:28;;;;;;;;;;;9.90;99.90;;;;;;5022926;28;19975;-74
2022/10/01 10:55:01;;;;;;;;;;;9.90;99.90;;;;;;5017608;28;19955;-73
2022/10/01 10:57:28;;;;;;;;;;;9.90;99.90;;;;;;5040098;28;19924;-74
2022/10/01 11:00:11;;;;;;;;;;;9.90;99.90;;;;;;5033409;28;19924;-74
2022/10/01 11:03:03;;;;;;;;;;;9.90;99.90;;;;;;5009286;28;19935;-74
2022/10/01 11:05:40;;;;;;;;;;;9.90;99.90;;;;;;4997231;28;19929;-74
2022/10/01 11:08:18;;;;;;;;;;;9.90;99.90;;;;;;5013454;28;19925;-74
2022/10/01 11:11:05;;;;;;;;;;;9.90;99.90;;;;;;5025087;28;20298;-74
2022/10/01 11:13:35;;;;;;;;;;;9.90;99.90;;;;;;5021902;28;19979;-75
2022/10/01 11:16:28;;;;;;;;;;;9.90;99.90;;;;;;5046356;28;19990;-74
2022/10/01 11:19:04;;;;;;;;;;;9.90;99.90;;;;;;5013452;28;20284;-74
2022/10/01 11:21:40;;;;;;;;;;;9.90;99.90;;;;;;5025936;28;19932;-75
2022/10/01 11:24:13;;;;;;;;;;;9.90;99.90;;;;;;5021877;28;19925;-73
2022/10/01 11:26:44;;;;;;;;;;;9.80;99.90;;;;;;5003768;28;19926;-74
2022/10/01 11:29:19;;;;;;;;;;;9.80;99.90;;;;;;5007460;28;19930;-74
2022/10/01 11:32:01;;;;;;;;;;;9.80;99.90;;;;;;5021508;28;19928;-74
2022/10/01 11:34:43;;;;;;;;;;;9.80;99.90;;;;;;5053210;28;19932;-74
2022/10/01 11:37:29;;;;;;;;;;;9.80;99.90;;;;;;5012289;28;19926;-74
2022/10/01 11:40:10;;;;;;;;;;;9.80;99.90;;;;;;4999240;28;20039;-73
2022/10/01 11:42:43;;;;;;;;;;;9.80;99.90;;;;;;5003112;28;19955;-74
2022/10/01 11:45:20;;;;;;;;;;;9.80;99.90;;;;;;5009838;28;19929;-73
2022/10/01 11:47:54;;;;;;;;;;;9.80;99.90;;;;;;5031686;28;19925;-73
2022/10/01 11:50:27;;;;;;;;;;;9.80;99.90;;;;;;5025549;28;19932;-72
2022/10/01 11:52:58;;;;;;;;;;;9.70;99.90;;;;;;5016727;28;19925;-74
2022/10/01 11:58:53;;;;;;;;;;;9.80;99.90;;;;;;5014408;28;19979;-74
2022/10/01 12:01:31;;;;;;;;;;;9.80;99.90;;;;;;5006903;28;20308;-73
2022/10/01 12:04:00;;;;;;;;;;;9.90;99.90;;;;;;4993828;28;19975;-74
2022/10/01 12:06:43;;;;;;;;;;;9.90;99.90;;;;;;5024677;28;19925;-73
2022/10/01 12:09:19;;;;;;;;;;;9.90;99.90;;;;;;5003645;28;19925;-74
2022/10/01 12:12:00;;;;;;;;;;;9.90;99.90;;;;;;5014651;28;20494;-73
2022/10/01 12:14:37;;;;;;;;;;;10.00;99.90;;;;;;5026119;28;19932;-76
2022/10/01 12:17:09;;;;;;;;;;;10.00;99.90;;;;;;5005501;28;19929;-75
2022/10/01 12:19:45;;;;;;;;;;;10.00;99.90;;;;;;5019986;28;19925;-75
2022/10/01 12:22:14;;;;;;;;;;;10.00;99.90;;;;;;5015653;28;19991;-73
2022/10/01 12:24:46;;;;;;;;;;;10.00;99.90;;;;;;5027139;28;20457;-73
2022/10/01 12:27:21;;;;;;;;;;;10.10;99.90;;;;;;5032630;28;19971;-73
2022/10/01 12:29:56;;;;;;;;;;;10.10;99.90;;;;;;5027356;28;19929;-73
2022/10/01 12:32:39;;;;;;;;;;;10.20;99.90;;;;;;4996626;28;19926;-74
2022/10/01 12:35:17;;;;;;;;;;;10.10;99.90;;;;;;5001466;28;19932;-74
2022/10/01 12:38:02;;;;;;;;;;;10.20;99.90;;;;;;4998997;28;19979;-74
2022/10/01 12:40:34;;;;;;;;;;;10.20;99.90;;;;;;5007431;28;20032;-76
2022/10/01 12:43:12;;;;;;;;;;;10.20;99.90;;;;;;5010337;28;19975;-73
2022/10/01 12:45:44;;;;;;;;;;;10.20;99.90;;;;;;5032166;28;19929;-73
2022/10/01 12:48:30;;;;;;;;;;;10.30;99.90;;;;;;5022139;28;19937;-73
2022/10/01 12:51:15;;;;;;;;;;;10.20;99.90;;;;;;5029801;28;20399;-73
2022/10/01 12:53:50;;;;;;;;;;;10.20;99.90;;;;;;5022471;28;19979;-74
2022/10/01 12:56:32;;;;;;;;;;;10.30;99.90;;;;;;5033193;28;19932;-74
2022/10/01 12:59:05;;;;;;;;;;;10.30;99.90;;;;;;5005274;28;19933;-74
2022/10/01 13:01:36;;;;;;;;;;;10.20;99.90;;;;;;5019978;28;19924;-74
2022/10/01 13:04:09;;;;;;;;;;;10.30;99.90;;;;;;5018038;28;20347;-74
2022/10/01 13:06:59;;;;;;;;;;;10.30;99.90;;;;;;5045549;28;19924;-73
2022/10/01 13:09:29;;;;;;;;;;;10.30;99.90;;;;;;5004104;28;19926;-73
2022/10/01 13:12:21;;;;;;;;;;;10.30;99.90;;;;;;5042405;28;19929;-74
2022/10/01 13:14:53;;;;;;;;;;;10.30;99.90;;;;;;4978132;28;19925;-74
2022/10/01 13:17:23;;;;;;;;;;;10.40;99.90;;;;;;5021520;28;19963;-76
2022/10/01 13:20:00;;;;;;;;;;;10.40;99.90;;;;;;5026103;28;19994;-76
2022/10/01 13:22:37;;;;;;;;;;;10.50;99.90;;;;;;5000027;28;19971;-74
2022/10/01 13:25:22;;;;;;;;;;;10.50;99.90;;;;;;5013356;28;19936;-75
2022/10/01 13:28:11;;;;;;;;;;;10.60;99.90;;;;;;5025285;28;19933;-74
2022/10/01 13:31:01;;;;;;;;;;;10.60;99.90;;;;;;5003839;28;19929;-73
2022/10/01 13:33:30;;;;;;;;;;;10.60;99.90;;;;;;5012304;28;19929;-75
2022/10/01 13:35:59;;;;;;;;;;;10.70;99.90;;;;;;5007337;28;20391;-73
2022/10/01 13:38:36;;;;;;;;;;;10.70;99.90;;;;;;5006279;28;19957;-74
2022/10/01 13:41:16;;;;;;;;;;;10.70;99.90;;;;;;5035720;28;19947;-74
2022/10/01 13:43:48;;;;;;;;;;;10.80;99.90;;;;;;4988503;28;19929;-75
2022/10/01 13:46:20;;;;;;;;;;;10.80;99.90;;;;;;5028294;28;19933;-74
2022/10/01 13:48:52;;;;;;;;;;;10.80;99.90;;;;;;5023860;28;19979;-75
2022/10/01 13:51:19;;;;;;;;;;;10.90;99.90;;;;;;5020507;28;20417;-74
2022/10/01 13:53:57;;;;;;;;;;;10.90;99.90;;;;;;5022545;28;19972;-74
2022/10/01 13:56:28;;;;;;;;;;;11.00;99.90;;;;;;5035271;28;19930;-75
2022/10/01 13:59:00;;;;;;;;;;;11.00;99.90;;;;;;4988174;28;19975;-75
2022/10/01 14:01:39;;;;;;;;;;;11.00;99.90;;;;;;5028872;28;19929;-76
2022/10/01 14:04:22;;;;;;;;;;;11.10;99.90;;;;;;5007486;28;19929;-75
2022/10/01 14:07:01;;;;;;;;;;;11.10;99.90;;;;;;5023144;28;20549;-75
2022/10/01 14:09:35;;;;;;;;;;;11.20;99.90;;;;;;5021159;28;20429;-74
2022/10/01 14:17:48;;;;;;;;;;;11.20;99.90;;;;;;5004258;28;19925;-76
2022/10/01 14:20:22;;;;;;;;;;;11.30;99.90;;;;;;5036515;28;19929;-75
2022/10/01 14:22:58;;;;;;;;;;;11.30;99.90;;;;;;4999441;28;20390;-75
2022/10/01 14:25:48;;;;;;;;;;;11.30;99.90;;;;;;5004483;28;19932;-75
2022/10/01 14:28:26;;;;;;;;;;;11.40;99.90;;;;;;5031926;28;20299;-76
2022/10/01 14:31:14;;;;;;;;;;;11.30;99.90;;;;;;5027618;28;19932;-75
2022/10/01 14:33:48;;;;;;;;;;;11.40;99.90;;;;;;5018882;28;19979;-75
2022/10/01 14:36:17;;;;;;;;;;;11.40;99.90;;;;;;5024071;28;19936;-74
2022/10/01 14:38:49;;;;;;;;;;;11.40;99.90;;;;;;5041878;28;20338;-75
2022/10/01 14:41:22;;;;;;;;;;;11.40;99.90;;;;;;5028127;28;19929;-77
2022/10/01 14:43:54;;;;;;;;;;;11.40;99.90;;;;;;5018856;28;19933;-74
2022/10/01 14:46:26;;;;;;;;;;;11.40;99.90;;;;;;5022685;28;19991;-75
2022/10/01 14:48:57;;;;;;;;;;;11.40;99.90;;;;;;5015232;28;19999;-75
2022/10/01 14:51:28;;;;;;;;;;;11.40;99.90;;;;;;5017978;28;19929;-76
2022/10/01 14:53:56;;;;;;;;;;;11.40;99.90;;;;;;5002451;28;19931;-75
2022/10/01 14:56:28;;;;;;;;;;;11.40;99.90;;;;;;5013846;28;19925;-75
2022/10/01 14:59:01;;;;;;;;;;;11.40;99.90;;;;;;5012241;28;19925;-75
2022/10/01 15:01:28;;;;;;;;;;;11.40;99.90;;;;;;5016438;28;19979;-75
2022/10/01 15:04:00;;;;;;;;;;;11.40;99.90;;;;;;4999577;28;19925;-76
2022/10/01 15:06:28;;;;;;;;;;;11.40;99.90;;;;;;5041680;28;19971;-75
2022/10/01 15:09:11;;;;;;;;;;;11.40;99.90;;;;;;5010843;28;19995;-75
2022/10/01 15:11:45;;;;;;;;;;;11.40;99.90;;;;;;5005116;28;19979;-75
2022/10/01 15:14:18;;;;;;;;;;;11.40;99.90;;;;;;5032608;28;19925;-75
2022/10/01 15:16:45;;;;;;;;;;;11.40;99.90;;;;;;5024890;28;19931;-76